sensor_id;sensor_type;location;lat;lon;timestamp;temperature;humidity
15257;DHT22;7731;50.720;6.912;2023-11-18T00:00:24;4.80;99.90
15257;DHT22;7731;50.720;6.912;2023-11-18T00:02:54;4.80;99.90
15257;DHT22;7731;50.720;6.912;2023-11-18T00:05:25;4.90;99.90
15257;DHT22;7731;50.720;6.912;2023-11-18T00:07:58;5.00;99.90
15257;DHT22;7731;50.720;6.912;2023-11-18T00:10:29;5.00;99.90
15257;DHT22;7731;50.720;6.912;2023-11-18T00:12:59;5.10;99.90
15257;DHT22;7731;50.720;6.912;2023-11-18T00:15:31;5.10;99.90
15257;DHT22;7731;50.720;6.912;2023-11-18T00:18:02;5.20;99.90
15257;DHT22;7731;50.720;6.912;2023-11-18T00:20:32;5.10;99.90
15257;DHT22;7731;50.720;6.912;2023-11-18T00:23:05;5.20;99.90
15257;DHT22;7731;50.720;6.912;2023-11-18T00:25:35;5.20;99.90
15257;DHT22;7731;50.720;6.912;2023-11-18T00:28:07;5.20;99.90
15257;DHT22;7731;50.720;6.912;2023-11-18T00:30:37;5.20;99.90
15257;DHT22;7731;50.720;6.912;2023-11-18T00:33:07;5.20;99.90
15257;DHT22;7731;50.720;6.912;2023-11-18T00:35:38;5.20;99.90
15257;DHT22;7731;50.720;6.912;2023-11-18T00:38:11;5.20;99.90
15257;DHT22;7731;50.720;6.912;2023-11-18T00:40:41;5.20;99.90
15257;DHT22;7731;50.720;6.912;2023-11-18T00:43:11;5.20;99.90
15257;DHT22;7731;50.720;6.912;2023-11-18T00:45:42;5.30;99.90
15257;DHT22;7731;50.720;6.912;2023-11-18T00:48:15;5.40;99.90
15257;DHT22;7731;50.720;6.912;2023-11-18T00:50:45;5.40;99.90
15257;DHT22;7731;50.720;6.912;2023-11-18T00:53:19;5.40;99.90
15257;DHT22;7731;50.720;6.912;2023-11-18T00:55:49;5.60;99.90
15257;DHT22;7731;50.720;6.912;2023-11-18T00:58:20;5.60;99.90
15257;DHT22;7731;50.720;6.912;2023-11-18T01:00:51;5.60;99.90
15257;DHT22;7731;50.720;6.912;2023-11-18T01:03:21;5.60;99.90
15257;DHT22;7731;50.720;6.912;2023-11-18T01:05:52;5.60;99.90
15257;DHT22;7731;50.720;6.912;2023-11-18T01:08:25;5.60;99.90
15257;DHT22;7731;50.720;6.912;2023-11-18T01:10:55;5.60;99.90
15257;DHT22;7731;50.720;6.912;2023-11-18T01:13:26;5.60;99.90
15257;DHT22;7731;50.720;6.912;2023-11-18T01:15:56;5.60;99.90
15257;DHT22;7731;50.720;6.912;2023-11-18T01:18:27;5.60;99.90
15257;DHT22;7731;50.720;6.912;2023-11-18T01:20:57;5.70;99.90
15257;DHT22;7731;50.720;6.912;2023-11-18T01:23:30;5.80;99.90
15257;DHT22;7731;50.720;6.912;2023-11-18T01:26:01;5.80;99.90
15257;DHT22;7731;50.720;6.912;2023-11-18T01:28:32;5.70;99.90
15257;DHT22;7731;50.720;6.912;2023-11-18T01:31:10;5.70;99.90
15257;DHT22;7731;50.720;6.912;2023-11-18T01:33:41;5.70;99.90
15257;DHT22;7731;50.720;6.912;2023-11-18T01:36:12;5.70;99.90
15257;DHT22;7731;50.720;6.912;2023-11-18T01:38:49;5.70;99.90
15257;DHT22;7731;50.720;6.912;2023-11-18T01:41:21;5.70;99.90
15257;DHT22;7731;50.720;6.912;2023-11-18T01:43:52;5.70;99.90
15257;DHT22;7731;50.720;6.912;2023-11-18T01:46:22;5.70;99.90
15257;DHT22;7731;50.720;6.912;2023-11-18T01:48:53;5.70;99.90
15257;DHT22;7731;50.720;6.912;2023-11-18T01:51:23;5.70;99.90
15257;DHT22;7731;50.720;6.912;2023-11-18T01:53:59;5.60;99.90
15257;DHT22;7731;50.720;6.912;2023-11-18T01:56:31;5.50;99.90
15257;DHT22;7731;50.720;6.912;2023-11-18T01:59:02;5.40;99.90
15257;DHT22;7731;50.720;6.912;2023-11-18T02:01:37;5.50;99.90
15257;DHT22;7731;50.720;6.912;2023-11-18T02:04:13;5.40;99.90
15257;DHT22;7731;50.720;6.912;2023-11-18T02:06:48;5.50;99.90
15257;DHT22;7731;50.720;6.912;2023-11-18T02:09:23;5.50;99.90
15257;DHT22;7731;50.720;6.912;2023-11-18T02:11:59;5.50;99.90
15257;DHT22;7731;50.720;6.912;2023-11-18T02:14:40;5.50;99.90
15257;DHT22;7731;50.720;6.912;2023-11-18T02:17:14;5.40;99.90
15257;DHT22;7731;50.720;6.912;2023-11-18T02:19:47;5.40;99.90
15257;DHT22;7731;50.720;6.912;2023-11-18T02:22:18;5.40;99.90
15257;DHT22;7731;50.720;6.912;2023-11-18T02:24:55;5.50;99.90
15257;DHT22;7731;50.720;6.912;2023-11-18T02:27:28;5.50;99.90
15257;DHT22;7731;50.720;6.912;2023-11-18T02:29:59;5.50;99.90
15257;DHT22;7731;50.720;6.912;2023-11-18T02:32:37;5.60;99.90
15257;DHT22;7731;50.720;6.912;2023-11-18T02:35:18;5.60;99.90
15257;DHT22;7731;50.720;6.912;2023-11-18T02:37:54;5.60;99.90
15257;DHT22;7731;50.720;6.912;2023-11-18T02:40:27;5.50;99.90
15257;DHT22;7731;50.720;6.912;2023-11-18T02:43:06;5.50;99.90
15257;DHT22;7731;50.720;6.912;2023-11-18T02:45:39;5.40;99.90
15257;DHT22;7731;50.720;6.912;2023-11-18T02:48:11;5.40;99.90
15257;DHT22;7731;50.720;6.912;2023-11-18T02:50:42;5.50;99.90
15257;DHT22;7731;50.720;6.912;2023-11-18T02:53:13;5.50;99.90
15257;DHT22;7731;50.720;6.912;2023-11-18T02:55:44;5.50;99.90
15257;DHT22;7731;50.720;6.912;2023-11-18T02:58:17;5.60;99.90
15257;DHT22;7731;50.720;6.912;2023-11-18T03:00:47;5.70;99.90
15257;DHT22;7731;50.720;6.912;2023-11-18T03:03:17;5.70;99.90
15257;DHT22;7731;50.720;6.912;2023-11-18T03:05:48;5.70;99.90
15257;DHT22;7731;50.720;6.912;2023-11-18T03:08:18;5.60;99.90
15257;DHT22;7731;50.720;6.912;2023-11-18T03:10:49;5.70;99.90
15257;DHT22;7731;50.720;6.912;2023-11-18T03:13:22;5.70;99.90
15257;DHT22;7731;50.720;6.912;2023-11-18T03:15:53;5.70;99.90
15257;DHT22;7731;50.720;6.912;2023-11-18T03:18:23;5.60;99.90
15257;DHT22;7731;50.720;6.912;2023-11-18T03:20:53;5.60;99.90
15257;DHT22;7731;50.720;6.912;2023-11-18T03:23:24;5.60;99.90
15257;DHT22;7731;50.720;6.912;2023-11-18T03:25:55;5.60;99.90
15257;DHT22;7731;50.720;6.912;2023-11-18T03:28:28;5.70;99.90
15257;DHT22;7731;50.720;6.912;2023-11-18T03:30:58;5.60;99.90
15257;DHT22;7731;50.720;6.912;2023-11-18T03:33:29;5.60;99.90
15257;DHT22;7731;50.720;6.912;2023-11-18T03:35:59;5.60;99.90
15257;DHT22;7731;50.720;6.912;2023-11-18T03:38:30;5.60;99.90
15257;DHT22;7731;50.720;6.912;2023-11-18T03:41:02;5.50;99.90
15257;DHT22;7731;50.720;6.912;2023-11-18T03:43:35;5.60;99.90
15257;DHT22;7731;50.720;6.912;2023-11-18T03:46:06;5.50;99.90
15257;DHT22;7731;50.720;6.912;2023-11-18T03:48:38;5.50;99.90
15257;DHT22;7731;50.720;6.912;2023-11-18T03:51:08;5.50;99.90
15257;DHT22;7731;50.720;6.912;2023-11-18T03:53:38;5.50;99.90
15257;DHT22;7731;50.720;6.912;2023-11-18T03:56:09;5.60;99.90
15257;DHT22;7731;50.720;6.912;2023-11-18T03:58:42;5.60;99.90
15257;DHT22;7731;50.720;6.912;2023-11-18T04:01:20;5.60;99.90
15257;DHT22;7731;50.720;6.912;2023-11-18T04:03:50;5.60;99.90
15257;DHT22;7731;50.720;6.912;2023-11-18T04:06:20;5.60;99.90
15257;DHT22;7731;50.720;6.912;2023-11-18T04:08:51;5.50;99.90
15257;DHT22;7731;50.720;6.912;2023-11-18T04:11:22;5.50;99.90
15257;DHT22;7731;50.720;6.912;2023-11-18T04:13:55;5.50;99.90
15257;DHT22;7731;50.720;6.912;2023-11-18T04:16:25;5.50;99.90
15257;DHT22;7731;50.720;6.912;2023-11-18T04:18:56;5.40;99.90
15257;DHT22;7731;50.720;6.912;2023-11-18T04:21:26;5.40;99.90
15257;DHT22;7731;50.720;6.912;2023-11-18T04:23:56;5.30;99.90
15257;DHT22;7731;50.720;6.912;2023-11-18T04:26:26;5.30;99.90
15257;DHT22;7731;50.720;6.912;2023-11-18T04:28:59;5.20;99.90
15257;DHT22;7731;50.720;6.912;2023-11-18T04:31:32;5.20;99.90
15257;DHT22;7731;50.720;6.912;2023-11-18T04:34:04;5.10;99.90
15257;DHT22;7731;50.720;6.912;2023-11-18T04:36:35;5.10;99.90
15257;DHT22;7731;50.720;6.912;2023-11-18T04:39:05;5.10;99.90
15257;DHT22;7731;50.720;6.912;2023-11-18T04:41:39;5.30;99.90
15257;DHT22;7731;50.720;6.912;2023-11-18T04:44:12;5.30;99.90
15257;DHT22;7731;50.720;6.912;2023-11-18T04:46:43;5.40;99.90
15257;DHT22;7731;50.720;6.912;2023-11-18T04:49:14;5.50;99.90
15257;DHT22;7731;50.720;6.912;2023-11-18T04:51:44;5.50;99.90
15257;DHT22;7731;50.720;6.912;2023-11-18T04:54:15;5.60;99.90
15257;DHT22;7731;50.720;6.912;2023-11-18T04:56:46;5.60;99.90
15257;DHT22;7731;50.720;6.912;2023-11-18T04:59:17;5.60;99.90
15257;DHT22;7731;50.720;6.912;2023-11-18T05:01:48;5.60;99.90
15257;DHT22;7731;50.720;6.912;2023-11-18T05:04:20;5.60;99.90
15257;DHT22;7731;50.720;6.912;2023-11-18T05:06:50;5.50;99.90
15257;DHT22;7731;50.720;6.912;2023-11-18T05:09:21;5.40;99.90
15257;DHT22;7731;50.720;6.912;2023-11-18T05:11:51;5.40;99.90
15257;DHT22;7731;50.720;6.912;2023-11-18T05:14:25;5.30;99.90
15257;DHT22;7731;50.720;6.912;2023-11-18T05:16:56;5.30;99.90
15257;DHT22;7731;50.720;6.912;2023-11-18T05:19:26;5.20;99.90
15257;DHT22;7731;50.720;6.912;2023-11-18T05:21:56;5.30;99.90
15257;DHT22;7731;50.720;6.912;2023-11-18T05:24:27;5.20;99.90
15257;DHT22;7731;50.720;6.912;2023-11-18T05:26:57;5.30;99.90
15257;DHT22;7731;50.720;6.912;2023-11-18T05:29:39;5.30;99.90
15257;DHT22;7731;50.720;6.912;2023-11-18T05:32:12;5.30;99.90
15257;DHT22;7731;50.720;6.912;2023-11-18T05:34:42;5.30;99.90
15257;DHT22;7731;50.720;6.912;2023-11-18T05:37:13;5.40;99.90
15257;DHT22;7731;50.720;6.912;2023-11-18T05:39:45;5.30;99.90
15257;DHT22;7731;50.720;6.912;2023-11-18T05:42:20;5.40;99.90
15257;DHT22;7731;50.720;6.912;2023-11-18T05:44:53;5.40;99.90
15257;DHT22;7731;50.720;6.912;2023-11-18T05:47:26;5.40;99.90
15257;DHT22;7731;50.720;6.912;2023-11-18T05:49:56;5.30;99.90
15257;DHT22;7731;50.720;6.912;2023-11-18T05:52:27;5.40;99.90
15257;DHT22;7731;50.720;6.912;2023-11-18T05:55:00;5.30;99.90
15257;DHT22;7731;50.720;6.912;2023-11-18T05:57:30;5.30;99.90
15257;DHT22;7731;50.720;6.912;2023-11-18T06:00:04;5.40;99.90
15257;DHT22;7731;50.720;6.912;2023-11-18T06:02:39;5.50;99.90
15257;DHT22;7731;50.720;6.912;2023-11-18T06:05:10;5.40;99.90
15257;DHT22;7731;50.720;6.912;2023-11-18T06:07:41;5.50;99.90
15257;DHT22;7731;50.720;6.912;2023-11-18T06:10:14;5.50;99.90
15257;DHT22;7731;50.720;6.912;2023-11-18T06:12:46;5.50;99.90
15257;DHT22;7731;50.720;6.912;2023-11-18T06:15:22;5.50;99.90
15257;DHT22;7731;50.720;6.912;2023-11-18T06:17:54;5.50;99.90
15257;DHT22;7731;50.720;6.912;2023-11-18T06:20:25;5.50;99.90
15257;DHT22;7731;50.720;6.912;2023-11-18T06:22:55;5.50;99.90
15257;DHT22;7731;50.720;6.912;2023-11-18T06:25:27;5.50;99.90
15257;DHT22;7731;50.720;6.912;2023-11-18T06:27:58;5.50;99.90
15257;DHT22;7731;50.720;6.912;2023-11-18T06:30:31;5.60;99.90
15257;DHT22;7731;50.720;6.912;2023-11-18T06:33:03;5.60;99.90
15257;DHT22;7731;50.720;6.912;2023-11-18T06:35:33;5.60;99.90
15257;DHT22;7731;50.720;6.912;2023-11-18T06:38:07;5.60;99.90
15257;DHT22;7731;50.720;6.912;2023-11-18T06:40:40;5.60;99.90
15257;DHT22;7731;50.720;6.912;2023-11-18T06:43:12;5.50;99.90
15257;DHT22;7731;50.720;6.912;2023-11-18T06:45:46;5.50;99.90
15257;DHT22;7731;50.720;6.912;2023-11-18T06:48:18;5.70;99.90
15257;DHT22;7731;50.720;6.912;2023-11-18T06:50:49;5.70;99.90
15257;DHT22;7731;50.720;6.912;2023-11-18T06:53:19;5.70;99.90
15257;DHT22;7731;50.720;6.912;2023-11-18T06:55:50;5.70;99.90
15257;DHT22;7731;50.720;6.912;2023-11-18T06:58:20;5.60;99.90
15257;DHT22;7731;50.720;6.912;2023-11-18T07:00:53;5.60;99.90
15257;DHT22;7731;50.720;6.912;2023-11-18T07:03:23;5.60;99.90
15257;DHT22;7731;50.720;6.912;2023-11-18T07:05:54;5.60;99.90
15257;DHT22;7731;50.720;6.912;2023-11-18T07:08:25;5.60;99.90
15257;DHT22;7731;50.720;6.912;2023-11-18T07:10:55;5.70;99.90
15257;DHT22;7731;50.720;6.912;2023-11-18T07:13:27;5.70;99.90
15257;DHT22;7731;50.720;6.912;2023-11-18T07:16:00;5.70;99.90
15257;DHT22;7731;50.720;6.912;2023-11-18T07:18:32;5.80;99.90
15257;DHT22;7731;50.720;6.912;2023-11-18T07:21:03;5.80;99.90
15257;DHT22;7731;50.720;6.912;2023-11-18T07:23:36;5.80;99.90
15257;DHT22;7731;50.720;6.912;2023-11-18T07:26:07;5.80;99.90
15257;DHT22;7731;50.720;6.912;2023-11-18T07:28:37;5.80;99.90
15257;DHT22;7731;50.720;6.912;2023-11-18T07:31:10;5.90;99.90
15257;DHT22;7731;50.720;6.912;2023-11-18T07:33:40;6.00;99.90
15257;DHT22;7731;50.720;6.912;2023-11-18T07:36:14;6.10;99.90
15257;DHT22;7731;50.720;6.912;2023-11-18T07:38:48;6.10;99.90
15257;DHT22;7731;50.720;6.912;2023-11-18T07:41:19;6.10;99.90
15257;DHT22;7731;50.720;6.912;2023-11-18T07:43:59;6.10;99.90
15257;DHT22;7731;50.720;6.912;2023-11-18T07:46:32;6.10;99.90
15257;DHT22;7731;50.720;6.912;2023-11-18T07:49:05;6.20;99.90
15257;DHT22;7731;50.720;6.912;2023-11-18T07:51:38;6.20;99.90
15257;DHT22;7731;50.720;6.912;2023-11-18T07:54:09;6.20;99.90
15257;DHT22;7731;50.720;6.912;2023-11-18T07:56:40;6.30;99.90
15257;DHT22;7731;50.720;6.912;2023-11-18T07:59:14;6.30;99.90
15257;DHT22;7731;50.720;6.912;2023-11-18T08:01:48;6.40;99.90
15257;DHT22;7731;50.720;6.912;2023-11-18T08:04:21;6.50;99.90
15257;DHT22;7731;50.720;6.912;2023-11-18T08:06:53;6.50;99.90
15257;DHT22;7731;50.720;6.912;2023-11-18T08:09:23;6.50;99.90
15257;DHT22;7731;50.720;6.912;2023-11-18T08:11:57;6.50;99.90
15257;DHT22;7731;50.720;6.912;2023-11-18T08:14:27;6.60;99.90
15257;DHT22;7731;50.720;6.912;2023-11-18T08:17:00;6.60;99.90
15257;DHT22;7731;50.720;6.912;2023-11-18T08:19:32;6.60;99.90
15257;DHT22;7731;50.720;6.912;2023-11-18T08:22:05;6.70;99.90
15257;DHT22;7731;50.720;6.912;2023-11-18T08:24:36;6.80;99.90
15257;DHT22;7731;50.720;6.912;2023-11-18T08:27:06;6.80;99.90
15257;DHT22;7731;50.720;6.912;2023-11-18T08:29:37;6.70;99.90
15257;DHT22;7731;50.720;6.912;2023-11-18T08:32:10;6.80;99.90
15257;DHT22;7731;50.720;6.912;2023-11-18T08:34:41;6.70;99.90
15257;DHT22;7731;50.720;6.912;2023-11-18T08:37:11;6.80;99.90
15257;DHT22;7731;50.720;6.912;2023-11-18T08:39:42;6.80;99.90
15257;DHT22;7731;50.720;6.912;2023-11-18T08:42:13;6.90;99.90
15257;DHT22;7731;50.720;6.912;2023-11-18T08:44:43;7.00;99.90
15257;DHT22;7731;50.720;6.912;2023-11-18T08:47:18;7.00;99.90
15257;DHT22;7731;50.720;6.912;2023-11-18T08:49:49;7.00;99.90
15257;DHT22;7731;50.720;6.912;2023-11-18T08:52:19;7.10;99.90
15257;DHT22;7731;50.720;6.912;2023-11-18T08:54:49;7.10;99.90
15257;DHT22;7731;50.720;6.912;2023-11-18T08:57:32;7.20;99.90
15257;DHT22;7731;50.720;6.912;2023-11-18T09:00:16;7.20;99.90
15257;DHT22;7731;50.720;6.912;2023-11-18T09:03:10;7.20;99.90
15257;DHT22;7731;50.720;6.912;2023-11-18T09:05:45;7.10;99.90
15257;DHT22;7731;50.720;6.912;2023-11-18T09:08:25;7.10;99.90
15257;DHT22;7731;50.720;6.912;2023-11-18T09:11:17;7.10;99.90
15257;DHT22;7731;50.720;6.912;2023-11-18T09:13:50;7.20;99.90
15257;DHT22;7731;50.720;6.912;2023-11-18T09:16:22;7.30;99.90
15257;DHT22;7731;50.720;6.912;2023-11-18T09:18:55;7.40;99.90
15257;DHT22;7731;50.720;6.912;2023-11-18T09:21:29;7.40;99.90
15257;DHT22;7731;50.720;6.912;2023-11-18T09:24:06;7.60;99.90
15257;DHT22;7731;50.720;6.912;2023-11-18T09:26:41;7.80;99.90
15257;DHT22;7731;50.720;6.912;2023-11-18T09:29:14;7.90;99.90
15257;DHT22;7731;50.720;6.912;2023-11-18T09:31:46;7.90;99.90
15257;DHT22;7731;50.720;6.912;2023-11-18T09:34:22;7.90;99.90
15257;DHT22;7731;50.720;6.912;2023-11-18T09:37:06;8.00;99.90
15257;DHT22;7731;50.720;6.912;2023-11-18T09:39:40;8.00;99.90
15257;DHT22;7731;50.720;6.912;2023-11-18T09:42:13;8.00;99.90
15257;DHT22;7731;50.720;6.912;2023-11-18T09:44:47;8.00;99.90
15257;DHT22;7731;50.720;6.912;2023-11-18T09:47:17;8.00;99.90
15257;DHT22;7731;50.720;6.912;2023-11-18T09:49:56;8.00;99.90
15257;DHT22;7731;50.720;6.912;2023-11-18T09:52:30;8.20;99.90
15257;DHT22;7731;50.720;6.912;2023-11-18T09:55:08;8.30;99.90
15257;DHT22;7731;50.720;6.912;2023-11-18T09:57:52;8.20;99.90
15257;DHT22;7731;50.720;6.912;2023-11-18T10:00:28;8.20;99.90
15257;DHT22;7731;50.720;6.912;2023-11-18T10:03:00;8.10;99.90
15257;DHT22;7731;50.720;6.912;2023-11-18T10:05:40;8.10;99.90
15257;DHT22;7731;50.720;6.912;2023-11-18T10:08:11;8.10;99.90
15257;DHT22;7731;50.720;6.912;2023-11-18T10:10:45;8.10;99.90
15257;DHT22;7731;50.720;6.912;2023-11-18T10:13:17;8.20;99.90
15257;DHT22;7731;50.720;6.912;2023-11-18T10:15:51;8.20;99.90
15257;DHT22;7731;50.720;6.912;2023-11-18T10:18:25;8.20;99.90
15257;DHT22;7731;50.720;6.912;2023-11-18T10:21:03;8.20;99.90
15257;DHT22;7731;50.720;6.912;2023-11-18T10:23:35;8.20;99.90
15257;DHT22;7731;50.720;6.912;2023-11-18T10:26:06;8.20;99.90
15257;DHT22;7731;50.720;6.912;2023-11-18T10:28:36;8.20;99.90
15257;DHT22;7731;50.720;6.912;2023-11-18T10:31:18;8.20;99.90
15257;DHT22;7731;50.720;6.912;2023-11-18T10:33:53;8.20;99.90
15257;DHT22;7731;50.720;6.912;2023-11-18T10:36:30;8.20;99.90
15257;DHT22;7731;50.720;6.912;2023-11-18T10:39:03;8.10;99.90
15257;DHT22;7731;50.720;6.912;2023-11-18T10:41:42;8.20;99.90
15257;DHT22;7731;50.720;6.912;2023-11-18T10:44:16;8.10;99.90
15257;DHT22;7731;50.720;6.912;2023-11-18T10:46:51;8.10;99.90
15257;DHT22;7731;50.720;6.912;2023-11-18T10:49:27;8.10;99.90
15257;DHT22;7731;50.720;6.912;2023-11-18T10:52:07;8.10;99.90
15257;DHT22;7731;50.720;6.912;2023-11-18T10:54:50;8.10;99.90
15257;DHT22;7731;50.720;6.912;2023-11-18T10:57:22;8.20;99.90
15257;DHT22;7731;50.720;6.912;2023-11-18T10:59:59;8.20;99.90
15257;DHT22;7731;50.720;6.912;2023-11-18T11:02:31;8.20;99.90
15257;DHT22;7731;50.720;6.912;2023-11-18T11:05:07;8.10;99.90
15257;DHT22;7731;50.720;6.912;2023-11-18T11:07:52;8.10;99.90
15257;DHT22;7731;50.720;6.912;2023-11-18T11:10:23;8.00;99.90
15257;DHT22;7731;50.720;6.912;2023-11-18T11:12:56;8.00;99.90
15257;DHT22;7731;50.720;6.912;2023-11-18T11:15:31;8.00;99.90
15257;DHT22;7731;50.720;6.912;2023-11-18T11:18:20;8.10;99.90
15257;DHT22;7731;50.720;6.912;2023-11-18T11:21:05;8.10;99.90
15257;DHT22;7731;50.720;6.912;2023-11-18T11:23:55;8.20;99.90
15257;DHT22;7731;50.720;6.912;2023-11-18T11:26:43;8.30;99.90
15257;DHT22;7731;50.720;6.912;2023-11-18T11:29:32;8.30;99.90
15257;DHT22;7731;50.720;6.912;2023-11-18T11:32:14;8.40;99.90
15257;DHT22;7731;50.720;6.912;2023-11-18T11:35:01;8.40;99.90
15257;DHT22;7731;50.720;6.912;2023-11-18T11:37:37;8.40;99.90
15257;DHT22;7731;50.720;6.912;2023-11-18T11:40:12;8.50;99.90
15257;DHT22;7731;50.720;6.912;2023-11-18T11:42:51;8.60;99.90
15257;DHT22;7731;50.720;6.912;2023-11-18T11:45:26;8.60;99.90
15257;DHT22;7731;50.720;6.912;2023-11-18T11:48:00;8.70;99.90
15257;DHT22;7731;50.720;6.912;2023-11-18T11:51:07;8.70;99.90
15257;DHT22;7731;50.720;6.912;2023-11-18T11:53:53;8.80;99.90
15257;DHT22;7731;50.720;6.912;2023-11-18T11:56:42;8.80;99.90
15257;DHT22;7731;50.720;6.912;2023-11-18T11:59:15;8.80;99.90
15257;DHT22;7731;50.720;6.912;2023-11-18T12:01:48;8.90;99.90
15257;DHT22;7731;50.720;6.912;2023-11-18T12:04:23;8.90;99.90
15257;DHT22;7731;50.720;6.912;2023-11-18T12:06:56;8.80;99.90
15257;DHT22;7731;50.720;6.912;2023-11-18T12:09:46;8.80;99.90
15257;DHT22;7731;50.720;6.912;2023-11-18T12:12:27;8.80;99.90
15257;DHT22;7731;50.720;6.912;2023-11-18T12:14:59;8.80;99.90
15257;DHT22;7731;50.720;6.912;2023-11-18T12:18:09;8.80;99.90
15257;DHT22;7731;50.720;6.912;2023-11-18T12:20:45;8.90;99.90
15257;DHT22;7731;50.720;6.912;2023-11-18T12:23:21;8.90;99.90
15257;DHT22;7731;50.720;6.912;2023-11-18T12:25:53;9.00;99.90
15257;DHT22;7731;50.720;6.912;2023-11-18T12:28:29;8.90;99.90
15257;DHT22;7731;50.720;6.912;2023-11-18T12:31:04;8.90;99.90
15257;DHT22;7731;50.720;6.912;2023-11-18T12:34:02;8.90;99.90
15257;DHT22;7731;50.720;6.912;2023-11-18T12:37:02;8.90;99.90
15257;DHT22;7731;50.720;6.912;2023-11-18T12:40:32;8.80;99.90
15257;DHT22;7731;50.720;6.912;2023-11-18T12:43:46;8.80;99.90
15257;DHT22;7731;50.720;6.912;2023-11-18T12:46:47;8.90;99.90
15257;DHT22;7731;50.720;6.912;2023-11-18T12:49:21;8.80;99.90
15257;DHT22;7731;50.720;6.912;2023-11-18T12:51:54;8.70;99.90
15257;DHT22;7731;50.720;6.912;2023-11-18T12:54:27;8.70;99.90
15257;DHT22;7731;50.720;6.912;2023-11-18T12:57:01;8.60;99.90
15257;DHT22;7731;50.720;6.912;2023-11-18T12:59:37;8.60;99.90
15257;DHT22;7731;50.720;6.912;2023-11-18T13:02:07;8.50;99.90
15257;DHT22;7731;50.720;6.912;2023-11-18T13:04:40;8.50;99.90
15257;DHT22;7731;50.720;6.912;2023-11-18T13:07:14;8.50;99.90
15257;DHT22;7731;50.720;6.912;2023-11-18T13:09:46;8.50;99.90
15257;DHT22;7731;50.720;6.912;2023-11-18T13:12:17;8.40;99.90
15257;DHT22;7731;50.720;6.912;2023-11-18T13:14:53;8.40;99.90
15257;DHT22;7731;50.720;6.912;2023-11-18T13:17:23;8.30;99.90
15257;DHT22;7731;50.720;6.912;2023-11-18T13:19:55;8.30;99.90
15257;DHT22;7731;50.720;6.912;2023-11-18T13:22:26;8.30;99.90
15257;DHT22;7731;50.720;6.912;2023-11-18T13:25:12;8.30;99.90
15257;DHT22;7731;50.720;6.912;2023-11-18T13:27:44;8.30;99.90
15257;DHT22;7731;50.720;6.912;2023-11-18T13:30:19;8.20;99.90
15257;DHT22;7731;50.720;6.912;2023-11-18T13:32:49;8.20;99.90
15257;DHT22;7731;50.720;6.912;2023-11-18T13:35:20;8.20;99.90
15257;DHT22;7731;50.720;6.912;2023-11-18T13:37:51;8.20;99.90
15257;DHT22;7731;50.720;6.912;2023-11-18T13:40:23;8.20;99.90
15257;DHT22;7731;50.720;6.912;2023-11-18T13:43:03;8.30;99.90
15257;DHT22;7731;50.720;6.912;2023-11-18T13:45:38;8.30;99.90
15257;DHT22;7731;50.720;6.912;2023-11-18T13:48:11;8.30;99.90
15257;DHT22;7731;50.720;6.912;2023-11-18T13:50:42;8.30;99.90
15257;DHT22;7731;50.720;6.912;2023-11-18T13:53:13;8.30;99.90
15257;DHT22;7731;50.720;6.912;2023-11-18T13:55:43;8.30;99.90
15257;DHT22;7731;50.720;6.912;2023-11-18T13:58:15;8.30;99.90
15257;DHT22;7731;50.720;6.912;2023-11-18T14:00:49;8.30;99.90
15257;DHT22;7731;50.720;6.912;2023-11-18T14:03:19;8.20;99.90
15257;DHT22;7731;50.720;6.912;2023-11-18T14:05:51;8.10;99.90
15257;DHT22;7731;50.720;6.912;2023-11-18T14:08:22;8.20;99.90
15257;DHT22;7731;50.720;6.912;2023-11-18T14:10:52;8.20;99.90
15257;DHT22;7731;50.720;6.912;2023-11-18T14:13:30;8.10;99.90
15257;DHT22;7731;50.720;6.912;2023-11-18T14:16:05;8.20;99.90
15257;DHT22;7731;50.720;6.912;2023-11-18T14:18:40;8.10;99.90
15257;DHT22;7731;50.720;6.912;2023-11-18T14:21:11;8.10;99.90
15257;DHT22;7731;50.720;6.912;2023-11-18T14:23:42;8.10;99.90
15257;DHT22;7731;50.720;6.912;2023-11-18T14:26:12;8.10;99.90
15257;DHT22;7731;50.720;6.912;2023-11-18T14:28:43;8.00;99.90
15257;DHT22;7731;50.720;6.912;2023-11-18T14:31:16;8.00;99.90
15257;DHT22;7731;50.720;6.912;2023-11-18T14:33:46;7.90;99.90
15257;DHT22;7731;50.720;6.912;2023-11-18T14:36:17;7.80;99.90
15257;DHT22;7731;50.720;6.912;2023-11-18T14:38:47;7.80;99.90
15257;DHT22;7731;50.720;6.912;2023-11-18T14:41:18;7.70;99.90
15257;DHT22;7731;50.720;6.912;2023-11-18T14:43:55;7.70;99.90
15257;DHT22;7731;50.720;6.912;2023-11-18T14:46:35;7.60;99.90
15257;DHT22;7731;50.720;6.912;2023-11-18T14:49:07;7.70;99.90
15257;DHT22;7731;50.720;6.912;2023-11-18T14:51:38;7.70;99.90
15257;DHT22;7731;50.720;6.912;2023-11-18T14:54:10;7.60;99.90
15257;DHT22;7731;50.720;6.912;2023-11-18T14:56:40;7.70;99.90
15257;DHT22;7731;50.720;6.912;2023-11-18T14:59:10;7.60;99.90
15257;DHT22;7731;50.720;6.912;2023-11-18T15:01:47;7.60;99.90
15257;DHT22;7731;50.720;6.912;2023-11-18T15:04:19;7.60;99.90
15257;DHT22;7731;50.720;6.912;2023-11-18T15:06:50;7.60;99.90
15257;DHT22;7731;50.720;6.912;2023-11-18T15:09:23;7.60;99.90
15257;DHT22;7731;50.720;6.912;2023-11-18T15:11:59;7.60;99.90
15257;DHT22;7731;50.720;6.912;2023-11-18T15:14:30;7.70;99.90
15257;DHT22;7731;50.720;6.912;2023-11-18T15:17:05;7.60;99.90
15257;DHT22;7731;50.720;6.912;2023-11-18T15:19:36;7.60;99.90
15257;DHT22;7731;50.720;6.912;2023-11-18T15:22:06;7.60;99.90
15257;DHT22;7731;50.720;6.912;2023-11-18T15:24:39;7.60;99.90
15257;DHT22;7731;50.720;6.912;2023-11-18T15:27:09;7.50;99.90
15257;DHT22;7731;50.720;6.912;2023-11-18T15:29:42;7.60;99.90
15257;DHT22;7731;50.720;6.912;2023-11-18T15:32:19;7.60;99.90
15257;DHT22;7731;50.720;6.912;2023-11-18T15:34:49;7.60;99.90
15257;DHT22;7731;50.720;6.912;2023-11-18T15:37:20;7.60;99.90
15257;DHT22;7731;50.720;6.912;2023-11-18T15:39:50;7.60;99.90
15257;DHT22;7731;50.720;6.912;2023-11-18T15:42:20;7.60;99.90
15257;DHT22;7731;50.720;6.912;2023-11-18T15:44:50;7.60;99.90
15257;DHT22;7731;50.720;6.912;2023-11-18T15:47:25;7.60;99.90
15257;DHT22;7731;50.720;6.912;2023-11-18T15:49:56;7.60;99.90
15257;DHT22;7731;50.720;6.912;2023-11-18T15:52:27;7.60;99.90
15257;DHT22;7731;50.720;6.912;2023-11-18T15:54:57;7.60;99.90
15257;DHT22;7731;50.720;6.912;2023-11-18T15:57:28;7.60;99.90
15257;DHT22;7731;50.720;6.912;2023-11-18T15:59:59;7.60;99.90
15257;DHT22;7731;50.720;6.912;2023-11-18T16:02:35;7.60;99.90
15257;DHT22;7731;50.720;6.912;2023-11-18T16:05:08;7.70;99.90
15257;DHT22;7731;50.720;6.912;2023-11-18T16:07:40;7.70;99.90
15257;DHT22;7731;50.720;6.912;2023-11-18T16:10:12;7.70;99.90
15257;DHT22;7731;50.720;6.912;2023-11-18T16:12:45;7.70;99.90
15257;DHT22;7731;50.720;6.912;2023-11-18T16:15:19;7.70;99.90
15257;DHT22;7731;50.720;6.912;2023-11-18T16:17:55;7.70;99.90
15257;DHT22;7731;50.720;6.912;2023-11-18T16:20:28;7.70;99.90
15257;DHT22;7731;50.720;6.912;2023-11-18T16:23:01;7.70;99.90
15257;DHT22;7731;50.720;6.912;2023-11-18T16:25:33;7.70;99.90
15257;DHT22;7731;50.720;6.912;2023-11-18T16:28:04;7.70;99.90
15257;DHT22;7731;50.720;6.912;2023-11-18T16:30:35;7.80;99.90
15257;DHT22;7731;50.720;6.912;2023-11-18T16:33:14;7.80;99.90
15257;DHT22;7731;50.720;6.912;2023-11-18T16:35:46;7.80;99.90
15257;DHT22;7731;50.720;6.912;2023-11-18T16:38:16;7.90;99.90
15257;DHT22;7731;50.720;6.912;2023-11-18T16:40:47;7.90;99.90
15257;DHT22;7731;50.720;6.912;2023-11-18T16:43:17;7.90;99.90